sensor_id;sensor_type;location;lat;lon;timestamp;P1;durP1;ratioP1;P2;durP2;ratioP2
65667;SDS011;52369;52.542;13.232;2022-10-30T00:00:12;31.13;;;15.93;;
65667;SDS011;52369;52.542;13.232;2022-10-30T00:02:38;24.73;;;15.52;;
65667;SDS011;52369;52.542;13.232;2022-10-30T00:05:04;29.33;;;16.27;;
65667;SDS011;52369;52.542;13.232;2022-10-30T00:07:30;24.08;;;14.85;;
65667;SDS011;52369;52.542;13.232;2022-10-30T00:09:56;23.25;;;15.38;;
65667;SDS011;52369;52.542;13.232;2022-10-30T00:12:22;25.90;;;15.57;;
65667;SDS011;52369;52.542;13.232;2022-10-30T00:14:48;30.80;;;15.18;;
65667;SDS011;52369;52.542;13.232;2022-10-30T00:17:14;27.00;;;15.60;;
65667;SDS011;52369;52.542;13.232;2022-10-30T00:19:40;25.65;;;14.45;;
65667;SDS011;52369;52.542;13.232;2022-10-30T00:22:06;40.00;;;21.05;;
65667;SDS011;52369;52.542;13.232;2022-10-30T00:24:32;34.22;;;18.90;;
65667;SDS011;52369;52.542;13.232;2022-10-30T00:26:58;35.55;;;19.13;;
65667;SDS011;52369;52.542;13.232;2022-10-30T00:29:24;31.67;;;18.08;;
65667;SDS011;52369;52.542;13.232;2022-10-30T00:31:51;23.85;;;14.77;;
65667;SDS011;52369;52.542;13.232;2022-10-30T00:34:17;29.85;;;16.65;;
65667;SDS011;52369;52.542;13.232;2022-10-30T00:36:43;29.90;;;17.42;;
65667;SDS011;52369;52.542;13.232;2022-10-30T00:39:09;31.48;;;16.42;;
65667;SDS011;52369;52.542;13.232;2022-10-30T00:41:35;29.58;;;16.20;;
65667;SDS011;52369;52.542;13.232;2022-10-30T00:44:30;31.08;;;16.42;;
65667;SDS011;52369;52.542;13.232;2022-10-30T00:46:49;26.92;;;15.90;;
65667;SDS011;52369;52.542;13.232;2022-10-30T00:49:15;28.02;;;15.30;;
65667;SDS011;52369;52.542;13.232;2022-10-30T00:51:42;28.50;;;15.55;;
65667;SDS011;52369;52.542;13.232;2022-10-30T00:54:11;31.75;;;16.77;;
65667;SDS011;52369;52.542;13.232;2022-10-30T00:56:38;28.33;;;14.65;;
65667;SDS011;52369;52.542;13.232;2022-10-30T00:59:06;26.05;;;14.65;;
65667;SDS011;52369;52.542;13.232;2022-10-30T01:01:34;28.02;;;15.23;;
65667;SDS011;52369;52.542;13.232;2022-10-30T01:04:02;25.33;;;13.48;;
65667;SDS011;52369;52.542;13.232;2022-10-30T01:06:28;27.17;;;14.38;;
65667;SDS011;52369;52.542;13.232;2022-10-30T01:08:55;26.02;;;15.15;;
65667;SDS011;52369;52.542;13.232;2022-10-30T01:11:21;26.80;;;14.57;;
65667;SDS011;52369;52.542;13.232;2022-10-30T01:13:47;22.30;;;14.05;;
65667;SDS011;52369;52.542;13.232;2022-10-30T01:29:11;22.10;;;13.88;;
65667;SDS011;52369;52.542;13.232;2022-10-30T01:34:19;22.25;;;13.68;;
65667;SDS011;52369;52.542;13.232;2022-10-30T01:36:51;26.75;;;13.98;;
65667;SDS011;52369;52.542;13.232;2022-10-30T01:39:23;22.70;;;14.45;;
65667;SDS011;52369;52.542;13.232;2022-10-30T01:41:50;25.50;;;14.90;;
65667;SDS011;52369;52.542;13.232;2022-10-30T01:44:18;25.65;;;14.35;;
65667;SDS011;52369;52.542;13.232;2022-10-30T01:49:18;24.23;;;14.25;;
65667;SDS011;52369;52.542;13.232;2022-10-30T01:51:57;24.77;;;13.60;;
65667;SDS011;52369;52.542;13.232;2022-10-30T01:59:36;29.17;;;14.90;;
65667;SDS011;52369;52.542;13.232;2022-10-30T02:02:04;22.70;;;14.15;;
65667;SDS011;52369;52.542;13.232;2022-10-30T02:04:30;26.13;;;14.02;;
65667;SDS011;52369;52.542;13.232;2022-10-30T02:06:56;22.70;;;14.00;;
65667;SDS011;52369;52.542;13.232;2022-10-30T02:09:22;24.98;;;14.65;;
65667;SDS011;52369;52.542;13.232;2022-10-30T02:11:49;25.40;;;14.00;;
65667;SDS011;52369;52.542;13.232;2022-10-30T02:14:17;24.70;;;14.15;;
65667;SDS011;52369;52.542;13.232;2022-10-30T02:16:47;21.17;;;13.30;;
65667;SDS011;52369;52.542;13.232;2022-10-30T02:19:14;22.45;;;13.35;;
65667;SDS011;52369;52.542;13.232;2022-10-30T02:21:41;23.20;;;14.15;;
65667;SDS011;52369;52.542;13.232;2022-10-30T02:24:07;26.52;;;14.18;;
65667;SDS011;52369;52.542;13.232;2022-10-30T02:26:33;22.75;;;13.80;;
65667;SDS011;52369;52.542;13.232;2022-10-30T02:28:59;25.55;;;14.05;;
65667;SDS011;52369;52.542;13.232;2022-10-30T02:31:25;24.38;;;14.02;;
65667;SDS011;52369;52.542;13.232;2022-10-30T02:33:50;24.45;;;13.57;;
65667;SDS011;52369;52.542;13.232;2022-10-30T02:36:16;24.88;;;13.93;;
65667;SDS011;52369;52.542;13.232;2022-10-30T02:38:43;25.20;;;13.60;;
65667;SDS011;52369;52.542;13.232;2022-10-30T02:41:10;22.98;;;13.00;;
65667;SDS011;52369;52.542;13.232;2022-10-30T02:43:36;23.30;;;12.80;;
65667;SDS011;52369;52.542;13.232;2022-10-30T02:46:02;21.23;;;13.38;;
65667;SDS011;52369;52.542;13.232;2022-10-30T02:48:29;22.02;;;12.98;;
65667;SDS011;52369;52.542;13.232;2022-10-30T02:50:59;23.95;;;13.88;;
65667;SDS011;52369;52.542;13.232;2022-10-30T02:53:25;23.90;;;13.20;;
65667;SDS011;52369;52.542;13.232;2022-10-30T02:55:52;21.40;;;13.27;;
65667;SDS011;52369;52.542;13.232;2022-10-30T02:58:18;23.15;;;13.18;;
65667;SDS011;52369;52.542;13.232;2022-10-30T03:00:44;21.10;;;12.82;;
65667;SDS011;52369;52.542;13.232;2022-10-30T03:03:10;21.20;;;12.13;;
65667;SDS011;52369;52.542;13.232;2022-10-30T03:05:36;24.52;;;13.50;;
65667;SDS011;52369;52.542;13.232;2022-10-30T03:08:02;20.58;;;13.40;;
65667;SDS011;52369;52.542;13.232;2022-10-30T03:10:28;22.60;;;12.52;;
65667;SDS011;52369;52.542;13.232;2022-10-30T03:12:54;23.48;;;13.57;;
65667;SDS011;52369;52.542;13.232;2022-10-30T03:15:20;29.40;;;13.77;;
65667;SDS011;52369;52.542;13.232;2022-10-30T03:17:46;20.95;;;11.85;;
65667;SDS011;52369;52.542;13.232;2022-10-30T03:20:13;20.17;;;11.55;;
65667;SDS011;52369;52.542;13.232;2022-10-30T03:22:39;23.30;;;13.20;;
65667;SDS011;52369;52.542;13.232;2022-10-30T03:25:05;22.40;;;12.55;;
65667;SDS011;52369;52.542;13.232;2022-10-30T03:27:31;24.27;;;12.77;;
65667;SDS011;52369;52.542;13.232;2022-10-30T03:29:57;18.85;;;11.70;;
65667;SDS011;52369;52.542;13.232;2022-10-30T03:32:23;23.88;;;11.50;;
65667;SDS011;52369;52.542;13.232;2022-10-30T03:34:49;21.50;;;11.82;;
65667;SDS011;52369;52.542;13.232;2022-10-30T03:37:15;23.65;;;12.07;;
65667;SDS011;52369;52.542;13.232;2022-10-30T03:39:41;22.33;;;12.25;;
65667;SDS011;52369;52.542;13.232;2022-10-30T03:42:07;20.45;;;12.18;;
65667;SDS011;52369;52.542;13.232;2022-10-30T03:44:33;27.60;;;12.45;;
65667;SDS011;52369;52.542;13.232;2022-10-30T03:46:59;23.80;;;12.13;;
65667;SDS011;52369;52.542;13.232;2022-10-30T03:49:25;21.05;;;12.13;;
65667;SDS011;52369;52.542;13.232;2022-10-30T03:51:51;20.45;;;12.07;;
65667;SDS011;52369;52.542;13.232;2022-10-30T03:54:17;20.70;;;12.38;;
65667;SDS011;52369;52.542;13.232;2022-10-30T03:56:44;20.85;;;11.75;;
65667;SDS011;52369;52.542;13.232;2022-10-30T03:59:10;22.73;;;11.63;;
65667;SDS011;52369;52.542;13.232;2022-10-30T04:01:36;20.60;;;11.40;;
65667;SDS011;52369;52.542;13.232;2022-10-30T04:04:02;19.42;;;11.82;;
65667;SDS011;52369;52.542;13.232;2022-10-30T04:06:28;22.65;;;11.52;;
65667;SDS011;52369;52.542;13.232;2022-10-30T04:08:54;20.88;;;11.88;;
65667;SDS011;52369;52.542;13.232;2022-10-30T04:11:20;19.00;;;12.00;;
65667;SDS011;52369;52.542;13.232;2022-10-30T04:13:46;21.83;;;11.52;;
65667;SDS011;52369;52.542;13.232;2022-10-30T04:16:12;21.55;;;11.65;;
65667;SDS011;52369;52.542;13.232;2022-10-30T04:18:38;21.02;;;11.63;;
65667;SDS011;52369;52.542;13.232;2022-10-30T04:21:04;19.85;;;11.75;;
65667;SDS011;52369;52.542;13.232;2022-10-30T04:23:30;19.48;;;12.23;;
65667;SDS011;52369;52.542;13.232;2022-10-30T04:25:58;22.75;;;12.45;;
65667;SDS011;52369;52.542;13.232;2022-10-30T04:28:25;19.33;;;11.55;;
65667;SDS011;52369;52.542;13.232;2022-10-30T04:30:51;21.20;;;12.82;;
65667;SDS011;52369;52.542;13.232;2022-10-30T04:33:17;23.58;;;12.32;;
65667;SDS011;52369;52.542;13.232;2022-10-30T04:35:43;20.83;;;11.75;;
65667;SDS011;52369;52.542;13.232;2022-10-30T04:38:10;20.77;;;12.57;;
65667;SDS011;52369;52.542;13.232;2022-10-30T04:40:37;19.75;;;11.57;;
65667;SDS011;52369;52.542;13.232;2022-10-30T04:43:03;19.88;;;11.65;;
65667;SDS011;52369;52.542;13.232;2022-10-30T04:45:30;22.42;;;11.88;;
65667;SDS011;52369;52.542;13.232;2022-10-30T04:47:59;18.40;;;11.13;;
65667;SDS011;52369;52.542;13.232;2022-10-30T04:50:26;22.30;;;11.55;;
65667;SDS011;52369;52.542;13.232;2022-10-30T04:53:03;22.73;;;11.85;;
65667;SDS011;52369;52.542;13.232;2022-10-30T04:55:29;22.35;;;12.57;;
65667;SDS011;52369;52.542;13.232;2022-10-30T04:57:56;20.45;;;11.80;;
65667;SDS011;52369;52.542;13.232;2022-10-30T05:00:22;19.30;;;12.00;;
65667;SDS011;52369;52.542;13.232;2022-10-30T05:02:48;21.00;;;12.20;;
65667;SDS011;52369;52.542;13.232;2022-10-30T05:05:14;30.40;;;16.45;;
65667;SDS011;52369;52.542;13.232;2022-10-30T05:07:40;20.88;;;11.95;;
65667;SDS011;52369;52.542;13.232;2022-10-30T05:10:09;17.42;;;12.32;;
65667;SDS011;52369;52.542;13.232;2022-10-30T05:12:36;19.02;;;12.38;;
65667;SDS011;52369;52.542;13.232;2022-10-30T05:15:02;22.10;;;11.43;;
65667;SDS011;52369;52.542;13.232;2022-10-30T05:17:28;20.88;;;12.57;;
65667;SDS011;52369;52.542;13.232;2022-10-30T05:19:54;26.63;;;12.18;;
65667;SDS011;52369;52.542;13.232;2022-10-30T05:22:20;22.58;;;11.57;;
65667;SDS011;52369;52.542;13.232;2022-10-30T05:24:46;22.85;;;11.82;;
65667;SDS011;52369;52.542;13.232;2022-10-30T05:27:12;17.88;;;11.25;;
65667;SDS011;52369;52.542;13.232;2022-10-30T05:29:38;22.40;;;11.60;;
65667;SDS011;52369;52.542;13.232;2022-10-30T05:32:04;24.40;;;11.07;;
65667;SDS011;52369;52.542;13.232;2022-10-30T05:34:30;20.70;;;10.82;;
65667;SDS011;52369;52.542;13.232;2022-10-30T05:36:56;20.38;;;11.15;;
65667;SDS011;52369;52.542;13.232;2022-10-30T05:39:22;19.33;;;10.70;;
65667;SDS011;52369;52.542;13.232;2022-10-30T05:41:48;21.23;;;11.80;;
65667;SDS011;52369;52.542;13.232;2022-10-30T05:44:14;20.65;;;11.23;;
65667;SDS011;52369;52.542;13.232;2022-10-30T05:46:40;20.08;;;11.10;;
65667;SDS011;52369;52.542;13.232;2022-10-30T05:49:06;20.67;;;10.95;;
65667;SDS011;52369;52.542;13.232;2022-10-30T05:51:32;18.10;;;10.07;;
65667;SDS011;52369;52.542;13.232;2022-10-30T05:53:58;18.58;;;10.23;;
65667;SDS011;52369;52.542;13.232;2022-10-30T05:56:24;19.02;;;10.93;;
65667;SDS011;52369;52.542;13.232;2022-10-30T05:58:50;19.15;;;10.65;;
65667;SDS011;52369;52.542;13.232;2022-10-30T06:01:16;17.55;;;9.88;;
65667;SDS011;52369;52.542;13.232;2022-10-30T06:03:42;20.15;;;12.90;;
65667;SDS011;52369;52.542;13.232;2022-10-30T06:06:08;19.02;;;10.30;;
65667;SDS011;52369;52.542;13.232;2022-10-30T06:08:34;21.10;;;9.68;;
65667;SDS011;52369;52.542;13.232;2022-10-30T06:11:00;17.70;;;10.43;;
65667;SDS011;52369;52.542;13.232;2022-10-30T06:13:26;21.50;;;9.85;;
65667;SDS011;52369;52.542;13.232;2022-10-30T06:15:55;18.35;;;10.30;;
65667;SDS011;52369;52.542;13.232;2022-10-30T06:18:21;21.20;;;10.43;;
65667;SDS011;52369;52.542;13.232;2022-10-30T06:20:47;22.92;;;10.90;;
65667;SDS011;52369;52.542;13.232;2022-10-30T06:23:14;17.52;;;10.02;;
65667;SDS011;52369;52.542;13.232;2022-10-30T06:25:40;17.33;;;10.27;;
65667;SDS011;52369;52.542;13.232;2022-10-30T06:28:06;20.83;;;10.40;;
65667;SDS011;52369;52.542;13.232;2022-10-30T06:30:32;18.42;;;10.07;;
65667;SDS011;52369;52.542;13.232;2022-10-30T06:33:02;18.92;;;10.38;;
65667;SDS011;52369;52.542;13.232;2022-10-30T06:35:28;19.95;;;10.95;;
65667;SDS011;52369;52.542;13.232;2022-10-30T06:37:54;19.92;;;10.50;;
65667;SDS011;52369;52.542;13.232;2022-10-30T06:40:22;16.73;;;9.65;;
65667;SDS011;52369;52.542;13.232;2022-10-30T06:42:49;19.88;;;9.90;;
65667;SDS011;52369;52.542;13.232;2022-10-30T06:45:16;17.45;;;9.50;;
65667;SDS011;52369;52.542;13.232;2022-10-30T06:47:42;15.52;;;9.50;;
65667;SDS011;52369;52.542;13.232;2022-10-30T06:50:10;19.77;;;9.57;;
65667;SDS011;52369;52.542;13.232;2022-10-30T06:52:36;18.08;;;9.65;;
65667;SDS011;52369;52.542;13.232;2022-10-30T06:55:03;17.67;;;9.45;;
65667;SDS011;52369;52.542;13.232;2022-10-30T06:57:32;21.35;;;10.68;;
65667;SDS011;52369;52.542;13.232;2022-10-30T06:59:58;16.95;;;9.40;;
65667;SDS011;52369;52.542;13.232;2022-10-30T07:02:24;20.17;;;10.52;;
65667;SDS011;52369;52.542;13.232;2022-10-30T07:04:50;16.63;;;9.55;;
65667;SDS011;52369;52.542;13.232;2022-10-30T07:07:16;19.33;;;10.30;;
65667;SDS011;52369;52.542;13.232;2022-10-30T07:09:42;17.05;;;9.88;;
65667;SDS011;52369;52.542;13.232;2022-10-30T07:12:10;19.63;;;9.93;;
65667;SDS011;52369;52.542;13.232;2022-10-30T07:14:36;17.50;;;10.00;;
65667;SDS011;52369;52.542;13.232;2022-10-30T07:17:02;16.55;;;9.80;;
65667;SDS011;52369;52.542;13.232;2022-10-30T07:19:28;18.10;;;10.40;;
65667;SDS011;52369;52.542;13.232;2022-10-30T07:21:54;17.83;;;10.73;;
65667;SDS011;52369;52.542;13.232;2022-10-30T07:24:21;21.08;;;10.55;;
65667;SDS011;52369;52.542;13.232;2022-10-30T07:26:47;16.42;;;10.35;;
65667;SDS011;52369;52.542;13.232;2022-10-30T07:29:13;14.10;;;9.07;;
65667;SDS011;52369;52.542;13.232;2022-10-30T07:31:39;19.25;;;9.82;;
65667;SDS011;52369;52.542;13.232;2022-10-30T07:34:05;19.02;;;11.10;;
65667;SDS011;52369;52.542;13.232;2022-10-30T07:36:31;17.95;;;10.15;;
65667;SDS011;52369;52.542;13.232;2022-10-30T07:38:57;19.60;;;10.45;;
65667;SDS011;52369;52.542;13.232;2022-10-30T07:41:23;17.15;;;9.73;;
65667;SDS011;52369;52.542;13.232;2022-10-30T07:43:48;23.77;;;10.40;;
65667;SDS011;52369;52.542;13.232;2022-10-30T07:46:14;17.08;;;10.13;;
65667;SDS011;52369;52.542;13.232;2022-10-30T07:48:40;18.92;;;10.43;;
65667;SDS011;52369;52.542;13.232;2022-10-30T07:51:06;19.08;;;10.43;;
65667;SDS011;52369;52.542;13.232;2022-10-30T07:53:32;21.90;;;9.23;;
65667;SDS011;52369;52.542;13.232;2022-10-30T07:55:58;18.27;;;9.98;;
65667;SDS011;52369;52.542;13.232;2022-10-30T07:58:24;17.60;;;9.90;;
65667;SDS011;52369;52.542;13.232;2022-10-30T08:00:50;17.77;;;10.27;;
65667;SDS011;52369;52.542;13.232;2022-10-30T08:03:16;15.95;;;9.13;;
65667;SDS011;52369;52.542;13.232;2022-10-30T08:05:42;17.73;;;9.73;;
65667;SDS011;52369;52.542;13.232;2022-10-30T08:08:08;17.60;;;10.00;;
65667;SDS011;52369;52.542;13.232;2022-10-30T08:10:34;21.88;;;12.00;;
65667;SDS011;52369;52.542;13.232;2022-10-30T08:13:01;19.42;;;9.98;;
65667;SDS011;52369;52.542;13.232;2022-10-30T08:15:27;20.35;;;12.30;;
65667;SDS011;52369;52.542;13.232;2022-10-30T08:17:53;20.50;;;9.38;;
65667;SDS011;52369;52.542;13.232;2022-10-30T08:20:20;15.43;;;9.32;;
65667;SDS011;52369;52.542;13.232;2022-10-30T08:22:47;18.42;;;10.43;;
65667;SDS011;52369;52.542;13.232;2022-10-30T08:25:13;17.27;;;10.07;;
65667;SDS011;52369;52.542;13.232;2022-10-30T08:27:48;16.23;;;8.93;;
65667;SDS011;52369;52.542;13.232;2022-10-30T08:30:15;17.58;;;9.30;;
65667;SDS011;52369;52.542;13.232;2022-10-30T08:32:41;15.70;;;9.70;;
65667;SDS011;52369;52.542;13.232;2022-10-30T08:35:07;18.13;;;8.75;;
65667;SDS011;52369;52.542;13.232;2022-10-30T08:37:33;16.65;;;8.55;;
65667;SDS011;52369;52.542;13.232;2022-10-30T08:39:59;15.35;;;8.70;;
65667;SDS011;52369;52.542;13.232;2022-10-30T08:42:25;17.05;;;8.68;;
65667;SDS011;52369;52.542;13.232;2022-10-30T08:44:51;17.23;;;8.82;;
65667;SDS011;52369;52.542;13.232;2022-10-30T08:47:17;14.95;;;8.73;;
65667;SDS011;52369;52.542;13.232;2022-10-30T08:49:43;15.98;;;9.00;;
65667;SDS011;52369;52.542;13.232;2022-10-30T08:52:09;14.88;;;9.10;;
65667;SDS011;52369;52.542;13.232;2022-10-30T08:54:35;16.20;;;8.82;;
65667;SDS011;52369;52.542;13.232;2022-10-30T08:57:01;16.67;;;9.13;;
65667;SDS011;52369;52.542;13.232;2022-10-30T08:59:27;15.57;;;8.82;;
65667;SDS011;52369;52.542;13.232;2022-10-30T09:01:53;19.77;;;9.70;;
65667;SDS011;52369;52.542;13.232;2022-10-30T09:04:19;15.40;;;9.48;;
65667;SDS011;52369;52.542;13.232;2022-10-30T09:06:45;16.60;;;9.00;;
65667;SDS011;52369;52.542;13.232;2022-10-30T09:09:11;16.92;;;8.38;;
65667;SDS011;52369;52.542;13.232;2022-10-30T09:11:38;15.25;;;9.10;;
65667;SDS011;52369;52.542;13.232;2022-10-30T09:14:04;19.33;;;9.07;;
65667;SDS011;52369;52.542;13.232;2022-10-30T09:16:30;14.52;;;7.82;;
65667;SDS011;52369;52.542;13.232;2022-10-30T09:18:56;15.57;;;8.63;;
65667;SDS011;52369;52.542;13.232;2022-10-30T09:21:22;16.45;;;9.63;;
65667;SDS011;52369;52.542;13.232;2022-10-30T09:23:48;14.10;;;8.30;;
65667;SDS011;52369;52.542;13.232;2022-10-30T09:26:14;13.55;;;8.02;;
65667;SDS011;52369;52.542;13.232;2022-10-30T09:28:40;18.50;;;8.05;;
65667;SDS011;52369;52.542;13.232;2022-10-30T09:31:06;14.18;;;7.35;;
65667;SDS011;52369;52.542;13.232;2022-10-30T09:33:32;18.23;;;7.45;;
65667;SDS011;52369;52.542;13.232;2022-10-30T09:35:58;15.43;;;6.90;;
65667;SDS011;52369;52.542;13.232;2022-10-30T09:38:26;16.63;;;7.18;;
65667;SDS011;52369;52.542;13.232;2022-10-30T09:49:19;16.92;;;6.60;;
65667;SDS011;52369;52.542;13.232;2022-10-30T09:54:33;16.00;;;6.80;;
65667;SDS011;52369;52.542;13.232;2022-10-30T09:59:32;11.15;;;5.82;;
65667;SDS011;52369;52.542;13.232;2022-10-30T10:02:03;15.52;;;6.60;;
65667;SDS011;52369;52.542;13.232;2022-10-30T10:04:40;15.85;;;6.75;;
65667;SDS011;52369;52.542;13.232;2022-10-30T10:07:54;14.93;;;6.20;;
65667;SDS011;52369;52.542;13.232;2022-10-30T10:09:55;15.55;;;6.25;;
65667;SDS011;52369;52.542;13.232;2022-10-30T10:12:40;11.95;;;5.90;;
65667;SDS011;52369;52.542;13.232;2022-10-30T10:15:10;12.20;;;6.10;;
65667;SDS011;52369;52.542;13.232;2022-10-30T10:17:40;12.90;;;6.32;;
65667;SDS011;52369;52.542;13.232;2022-10-30T10:20:12;13.10;;;6.72;;
65667;SDS011;52369;52.542;13.232;2022-10-30T10:22:42;14.15;;;5.88;;
65667;SDS011;52369;52.542;13.232;2022-10-30T10:25:12;12.90;;;5.60;;
65667;SDS011;52369;52.542;13.232;2022-10-30T10:48:22;15.02;;;5.75;;
65667;SDS011;52369;52.542;13.232;2022-10-30T10:53:32;17.02;;;5.20;;
65667;SDS011;52369;52.542;13.232;2022-10-30T10:56:00;10.13;;;5.60;;
65667;SDS011;52369;52.542;13.232;2022-10-30T10:58:28;11.75;;;5.20;;
65667;SDS011;52369;52.542;13.232;2022-10-30T11:00:56;12.50;;;5.40;;
65667;SDS011;52369;52.542;13.232;2022-10-30T11:03:35;15.15;;;6.38;;
65667;SDS011;52369;52.542;13.232;2022-10-30T11:06:27;13.00;;;5.88;;
65667;SDS011;52369;52.542;13.232;2022-10-30T11:08:57;11.95;;;5.20;;
65667;SDS011;52369;52.542;13.232;2022-10-30T11:11:27;15.70;;;5.55;;
65667;SDS011;52369;52.542;13.232;2022-10-30T11:13:53;14.65;;;5.53;;
65667;SDS011;52369;52.542;13.232;2022-10-30T11:16:39;13.23;;;5.22;;
65667;SDS011;52369;52.542;13.232;2022-10-30T11:19:13;11.52;;;5.47;;
65667;SDS011;52369;52.542;13.232;2022-10-30T11:21:44;13.80;;;5.28;;
65667;SDS011;52369;52.542;13.232;2022-10-30T11:26:58;17.05;;;5.95;;
65667;SDS011;52369;52.542;13.232;2022-10-30T11:29:25;11.13;;;4.97;;
65667;SDS011;52369;52.542;13.232;2022-10-30T11:32:03;12.65;;;5.30;;
65667;SDS011;52369;52.542;13.232;2022-10-30T11:36:55;16.33;;;5.45;;
65667;SDS011;52369;52.542;13.232;2022-10-30T11:44:22;11.38;;;5.18;;
65667;SDS011;52369;52.542;13.232;2022-10-30T11:46:50;13.15;;;5.57;;
65667;SDS011;52369;52.542;13.232;2022-10-30T11:49:23;15.70;;;5.57;;
65667;SDS011;52369;52.542;13.232;2022-10-30T11:51:50;10.30;;;4.70;;
65667;SDS011;52369;52.542;13.232;2022-10-30T11:54:18;16.38;;;5.80;;
65667;SDS011;52369;52.542;13.232;2022-10-30T11:56:45;34.03;;;14.10;;
65667;SDS011;52369;52.542;13.232;2022-10-30T11:59:13;13.45;;;6.10;;
65667;SDS011;52369;52.542;13.232;2022-10-30T12:01:56;12.90;;;5.22;;
65667;SDS011;52369;52.542;13.232;2022-10-30T12:04:23;13.23;;;4.97;;
65667;SDS011;52369;52.542;13.232;2022-10-30T12:09:44;12.63;;;5.80;;
65667;SDS011;52369;52.542;13.232;2022-10-30T12:12:23;15.23;;;5.25;;
65667;SDS011;52369;52.542;13.232;2022-10-30T12:14:52;14.93;;;5.30;;
65667;SDS011;52369;52.542;13.232;2022-10-30T12:17:18;11.60;;;5.95;;
65667;SDS011;52369;52.542;13.232;2022-10-30T12:19:49;16.77;;;5.53;;
65667;SDS011;52369;52.542;13.232;2022-10-30T12:22:33;11.93;;;5.10;;
65667;SDS011;52369;52.542;13.232;2022-10-30T12:25:03;14.35;;;5.50;;
65667;SDS011;52369;52.542;13.232;2022-10-30T12:27:33;14.32;;;4.95;;
65667;SDS011;52369;52.542;13.232;2022-10-30T12:30:03;12.70;;;5.00;;
65667;SDS011;52369;52.542;13.232;2022-10-30T12:35:08;13.27;;;4.85;;
65667;SDS011;52369;52.542;13.232;2022-10-30T12:37:37;10.73;;;5.03;;
65667;SDS011;52369;52.542;13.232;2022-10-30T12:40:15;13.05;;;5.68;;
65667;SDS011;52369;52.542;13.232;2022-10-30T12:48:02;11.73;;;5.32;;
65667;SDS011;52369;52.542;13.232;2022-10-30T12:53:06;13.05;;;4.90;;
65667;SDS011;52369;52.542;13.232;2022-10-30T12:55:40;13.18;;;6.22;;
65667;SDS011;52369;52.542;13.232;2022-10-30T12:58:22;9.95;;;4.70;;
65667;SDS011;52369;52.542;13.232;2022-10-30T13:00:52;9.25;;;4.57;;
65667;SDS011;52369;52.542;13.232;2022-10-30T13:10:42;11.05;;;4.50;;
65667;SDS011;52369;52.542;13.232;2022-10-30T13:13:10;13.90;;;4.97;;
65667;SDS011;52369;52.542;13.232;2022-10-30T13:15:41;13.60;;;8.68;;
65667;SDS011;52369;52.542;13.232;2022-10-30T13:18:19;11.77;;;4.50;;
65667;SDS011;52369;52.542;13.232;2022-10-30T13:23:19;12.90;;;6.43;;
65667;SDS011;52369;52.542;13.232;2022-10-30T13:30:58;16.05;;;5.75;;
65667;SDS011;52369;52.542;13.232;2022-10-30T13:43:40;13.27;;;5.03;;
65667;SDS011;52369;52.542;13.232;2022-10-30T13:53:36;15.25;;;4.95;;
65667;SDS011;52369;52.542;13.232;2022-10-30T13:56:03;13.57;;;5.00;;
65667;SDS011;52369;52.542;13.232;2022-10-30T14:11:12;12.93;;;4.82;;
65667;SDS011;52369;52.542;13.232;2022-10-30T14:18:43;13.85;;;5.03;;
65667;SDS011;52369;52.542;13.232;2022-10-30T14:24:01;12.93;;;4.80;;
65667;SDS011;52369;52.542;13.232;2022-10-30T14:26:27;12.32;;;4.50;;
65667;SDS011;52369;52.542;13.232;2022-10-30T14:28:53;11.45;;;4.70;;
65667;SDS011;52369;52.542;13.232;2022-10-30T14:31:31;12.82;;;4.88;;
65667;SDS011;52369;52.542;13.232;2022-10-30T14:33:57;14.15;;;5.10;;
65667;SDS011;52369;52.542;13.232;2022-10-30T14:38:50;11.13;;;4.85;;
65667;SDS011;52369;52.542;13.232;2022-10-30T14:48:58;12.25;;;5.13;;
65667;SDS011;52369;52.542;13.232;2022-10-30T14:51:33;13.90;;;5.32;;
65667;SDS011;52369;52.542;13.232;2022-10-30T14:56:53;11.55;;;5.35;;
65667;SDS011;52369;52.542;13.232;2022-10-30T14:59:21;16.58;;;6.13;;
65667;SDS011;52369;52.542;13.232;2022-10-30T15:04:28;15.00;;;5.97;;
65667;SDS011;52369;52.542;13.232;2022-10-30T15:14:51;15.88;;;6.70;;
65667;SDS011;52369;52.542;13.232;2022-10-30T15:17:21;17.38;;;6.13;;
65667;SDS011;52369;52.542;13.232;2022-10-30T15:19:48;16.60;;;6.50;;
65667;SDS011;52369;52.542;13.232;2022-10-30T15:22:16;15.98;;;6.38;;
65667;SDS011;52369;52.542;13.232;2022-10-30T15:24:43;18.30;;;6.95;;
65667;SDS011;52369;52.542;13.232;2022-10-30T15:27:10;14.98;;;6.82;;
65667;SDS011;52369;52.542;13.232;2022-10-30T15:29:40;14.48;;;7.70;;
65667;SDS011;52369;52.542;13.232;2022-10-30T15:32:15;18.45;;;7.93;;
65667;SDS011;52369;52.542;13.232;2022-10-30T15:34:51;15.90;;;7.13;;
65667;SDS011;52369;52.542;13.232;2022-10-30T15:37:17;21.05;;;7.20;;
65667;SDS011;52369;52.542;13.232;2022-10-30T15:39:43;19.02;;;8.35;;
65667;SDS011;52369;52.542;13.232;2022-10-30T15:42:09;18.98;;;7.63;;
65667;SDS011;52369;52.542;13.232;2022-10-30T15:44:40;16.00;;;6.97;;
65667;SDS011;52369;52.542;13.232;2022-10-30T15:47:14;18.17;;;7.38;;
65667;SDS011;52369;52.542;13.232;2022-10-30T15:49:41;15.88;;;7.53;;
65667;SDS011;52369;52.542;13.232;2022-10-30T15:52:14;16.45;;;7.93;;
65667;SDS011;52369;52.542;13.232;2022-10-30T15:54:42;16.85;;;7.15;;
65667;SDS011;52369;52.542;13.232;2022-10-30T15:57:20;21.33;;;7.38;;
65667;SDS011;52369;52.542;13.232;2022-10-30T15:59:54;18.52;;;7.82;;
65667;SDS011;52369;52.542;13.232;2022-10-30T16:02:21;18.90;;;7.07;;
65667;SDS011;52369;52.542;13.232;2022-10-30T16:04:48;19.35;;;6.82;;
65667;SDS011;52369;52.542;13.232;2022-10-30T16:07:24;15.52;;;7.53;;
65667;SDS011;52369;52.542;13.232;2022-10-30T16:09:57;16.33;;;7.30;;
65667;SDS011;52369;52.542;13.232;2022-10-30T16:12:25;15.73;;;7.38;;
65667;SDS011;52369;52.542;13.232;2022-10-30T16:14:52;19.05;;;7.45;;
65667;SDS011;52369;52.542;13.232;2022-10-30T16:17:19;19.88;;;8.00;;
65667;SDS011;52369;52.542;13.232;2022-10-30T16:19:46;18.65;;;8.82;;
65667;SDS011;52369;52.542;13.232;2022-10-30T16:22:23;18.73;;;8.82;;
65667;SDS011;52369;52.542;13.232;2022-10-30T16:24:53;18.77;;;8.80;;
65667;SDS011;52369;52.542;13.232;2022-10-30T16:27:21;18.20;;;8.55;;
65667;SDS011;52369;52.542;13.232;2022-10-30T16:29:48;20.73;;;8.52;;
65667;SDS011;52369;52.542;13.232;2022-10-30T16:32:15;24.20;;;8.55;;
65667;SDS011;52369;52.542;13.232;2022-10-30T16:34:42;21.17;;;9.95;;
65667;SDS011;52369;52.542;13.232;2022-10-30T16:37:13;23.35;;;11.25;;
65667;SDS011;52369;52.542;13.232;2022-10-30T16:39:39;19.23;;;9.40;;
65667;SDS011;52369;52.542;13.232;2022-10-30T16:42:05;19.00;;;9.55;;
65667;SDS011;52369;52.542;13.232;2022-10-30T16:44:32;18.55;;;9.38;;
65667;SDS011;52369;52.542;13.232;2022-10-30T16:49:34;20.55;;;10.38;;
65667;SDS011;52369;52.542;13.232;2022-10-30T16:52:04;31.05;;;12.52;;
65667;SDS011;52369;52.542;13.232;2022-10-30T16:54:40;25.60;;;10.70;;
65667;SDS011;52369;52.542;13.232;2022-10-30T16:57:10;22.05;;;10.25;;
65667;SDS011;52369;52.542;13.232;2022-10-30T16:59:42;18.90;;;9.63;;
65667;SDS011;52369;52.542;13.232;2022-10-30T17:02:19;28.77;;;11.15;;